Flight Track Log - Related Links

Times and Time Zones

All times are in EDT time to prevent confusion due to time zone crossing. See the AWE1693 flight status page for this flight to view local times or setup timezone preferences in your user account.

Time Position Orientation Groundspeed Altitude Reporting Facility
EDT Latitude Longitude Course Direction KTS MPH feet Rate Location/Type
Sat 09:49:04 AM 38.8167 -77.0333 201° Southwest 152 175 1,500  Level Potomac TRACON
Sat 09:50:04 AM 38.7667 -77.0333 180° South 224 258 3,200 2,200 Climbing Potomac TRACON
Sat 09:51:04 AM 38.7167 -77.0833 218° Southwest 262 302 5,900 3,223 Climbing Potomac TRACON
Sat 09:52:00 AM 38.5558 -77.3572 222° Southwest  Level FlightAware Approximate
Sat 09:52:05 AM 38.6667 -77.1667 232° Southwest 258 297 9,700  Level Potomac TRACON
Sat 09:52:59 AM 38.6167 -77.2333 226° Southwest 288 331 11,000 939 Climbing Potomac TRACON
Sat 09:53:00 AM 38.4810 -77.4507 225° Southwest  Level FlightAware Approximate
Sat 09:54:00 AM 38.4043 -77.5395 201° Southwest  Level FlightAware Approximate
Sat 09:54:00 AM 38.5550 -77.3175 227° Southwest 349 402 11,500  Level Washington Center
Sat 09:54:58 AM 38.5036 -77.4064 234° Southwest 360 414 14,800 2,824 Climbing Washington Center
Sat 09:55:59 AM 38.4394 -77.5028 230° Southwest 366 421 17,100 2,250 Climbing Washington Center
Sat 09:56:58 AM 38.3753 -77.6019 230° Southwest 366 421 19,300 1,966 Climbing Washington Center
Sat 09:57:58 AM 38.3111 -77.7033 231° Southwest 366 421 21,000 1,190 Climbing Washington Center
Sat 09:58:59 AM 38.2425 -77.8072 230° Southwest 376 433 21,700 1,033 Climbing Washington Center
Sat 10:00:00 AM 38.1717 -77.9108 229° Southwest 381 438 23,100 1,866 Climbing Washington Center
Sat 10:00:58 AM 38.1028 -78.0167 230° Southwest 386 444 25,400 1,765 Climbing Washington Center
Sat 10:01:59 AM 38.0339 -78.1228 231° Southwest 392 451 26,600 1,328 Climbing Washington Center
Sat 10:03:00 AM 37.9606 -78.2386 231° Southwest 392 451 28,100 1,488 Climbing Washington Center
Sat 10:04:00 AM 37.8872 -78.3414 228° Southwest 392 451 29,600 966 Climbing Washington Center
Sat 10:04:58 AM 37.8139 -78.4492 229° Southwest 397 457 30,000 203 Climbing Washington Center
Sat 10:05:58 AM 37.7406 -78.5489 227° Southwest 397 457 30,000  Level Washington Center
Sat 10:06:59 AM 37.6756 -78.6458 230° Southwest 402 463 30,000  Level Washington Center
Sat 10:07:58 AM 37.6019 -78.7453 227° Southwest 396 456 30,000 -101 Level Washington Center
Sat 10:08:58 AM 37.5436 -78.8292 229° Southwest 396 456 29,800 -689 Descending Washington Center
Sat 10:10:00 AM 37.4631 -78.9461 229° Southwest 395 455 28,600 -885 Descending Washington Center
Sat 10:11:00 AM 37.3894 -79.0475 228° Southwest 378 435 28,000 -305 Descending Washington Center
Sat 10:11:58 AM 37.3197 -79.1436 228° Southwest 378 435 28,000  Level Washington Center
Sat 10:12:59 AM 37.2503 -79.2369 227° Southwest 373 429 28,000  Level Washington Center
Sat 10:13:59 AM 37.1667 -79.3111 215° Southwest 368 423 28,000  Level Washington Center
Sat 10:15:00 AM 37.0808 -79.3797 213° Southwest 368 423 28,000  Level Washington Center
Sat 10:16:00 AM 37.0039 -79.4436 214° Southwest 379 436 28,000  Level Washington Center
Sat 10:16:58 AM 36.9158 -79.5147 213° Southwest 379 436 28,000  Level Washington Center
Sat 10:17:58 AM 36.8303 -79.5856 214° Southwest 379 436 28,000  Level Washington Center
Sat 10:18:58 AM 36.7422 -79.6589 214° Southwest 379 436 28,000 -50 Level Washington Center
Sat 10:19:59 AM 36.6478 -79.7367 213° Southwest 379 436 27,900 -492 Descending Washington Center
Sat 10:21:00 AM 36.5619 -79.8044 212° Southwest 379 436 27,000 -962 Descending Washington Center
Sat 10:21:45 AM 36.4939 -79.8553 211° Southwest 369 425 26,200 -1,600 Descending Atlanta Center
Sat 10:22:45 AM 36.4086 -79.9242 213° Southwest 369 425 24,200 -2,000 Descending Atlanta Center
Sat 10:23:45 AM 36.3275 -79.9928 214° Southwest 364 419 22,200 -1,100 Descending Atlanta Center
Sat 10:24:45 AM 36.2544 -80.0556 215° Southwest 357 411 22,000 -700 Descending Atlanta Center
Sat 10:25:45 AM 36.1772 -80.1236 215° Southwest 357 411 20,800 -4,500 Descending Atlanta Center
Sat 10:26:45 AM 36.1431 -80.2258 248° West 333 383 13,000 -1,800 Descending Atlanta Center
Sat 10:27:45 AM 36.1150 -80.3297 252° West 305 351 17,200 1,850 Climbing Atlanta Center
Sat 10:28:45 AM 36.0367 -80.3642 200° South 280 322 16,700 -765 Descending Atlanta Center
Sat 10:29:27 AM 35.9769 -80.3875 198° South 305 351 15,900 -1,252 Descending Atlanta Center
Sat 10:30:40 AM 35.8839 -80.4147 193° South 303 349 14,300 -1,348 Descending Atlanta Center
Sat 10:31:45 AM 35.7950 -80.4494 198° South 307 353 12,800 -1,392 Descending Atlanta Center
Sat 10:32:45 AM 35.7278 -80.5061 214° Southwest 296 341 11,400 -1,500 Descending Atlanta Center
Sat 10:33:45 AM 35.6539 -80.5400 200° South 291 335 9,800 -1,412 Descending Atlanta Center
Sat 10:34:44 AM 35.5794 -80.5636 194° South 288 331 8,600 -1,200 Descending Atlanta Center
Sat 10:34:45 AM 35.5794 -80.5636 194° South 285 328 8,600 -984 Level Atlanta Center
Sat 10:35:45 AM 35.5133 -80.5867 196° South 252 290 7,600 -800 Descending Atlanta Center
Sat 10:36:45 AM 35.4514 -80.6147 200° South 261 300 7,000 -900 Descending Atlanta Center
Sat 10:37:45 AM 35.4031 -80.6781 227° Southwest 253 291 5,800 -1,415 Descending Atlanta Center
Sat 10:38:48 AM 35.3531 -80.7539 231° Southwest 248 285 4,100 -1,619 Descending Atlanta Center

Login

Don't have an account? Register now (free) for customized features, flight alerts, and more!